Forum »   Powstanie CPL - Centralny Port Lotniczy        Połączenia »   Ryanair ogłosił loty na Ukrainę   

Strona 4 z 4 PierwszyPierwszy ... 2 3 4
Pokaż wyniki od 61 do 69 z 69
Like Tree17Likes

Wątek: EPKK/KRK Informacje z ostatniej chwili/Przekierowania/Podmiany/Ciekawostki 2017

  1. #61
    Awatar trabin

    Dołączył
    Aug 2008
    Mieszka w
    EPRU

    Domyślnie


    Polecamy

    Cytat Zamieszczone przez Airliner Zobacz posta
    Na Dashu Ptasie Mleczko?
    Tak Q400 w LOT
    Celestron C70, Canon 600D + EF-S 18-55 mm f/3.5-5.6 IS II, EF-S 55-250mm f/4-5.6 IS II.
    http://www.flightradar24.com/

  2. #62
    Awatar Airliner

    Dołączył
    Jan 2007
    Mieszka w
    Kraków, Poland.

    Domyślnie

    Cytat Zamieszczone przez trabin Zobacz posta
    No proszę
    Jeszcze chwila i będzie Drimek ptasie mleczko
    Dzięki za info.
    Pozdrawiam, Airliner

  3. #63
    Awatar Miedzianowski

    Dołączył
    Aug 2007
    Mieszka w
    Kraków, NH

    Domyślnie

    Mamy mały "nalot" z LUZ: PC12, Socata TB, Cessna 182, jeden po drugim...
    Miedzianowski

  4. #64
    Moderator Senior Screener
    Awatar Pzlm28

    Dołączył
    Jun 2009
    Mieszka w
    EPKK

    Domyślnie

    A dokładnie:
    SPISS - BE9L
    N9934P - TB21
    SPTHI - C182
    SPMBW - PC12
    SPNWM - PC12
    Canon 550D+Tamron 150-600+C55-250+18-55+UBC30XLT

  5. #65

    Dołączył
    Jul 2014
    Mieszka w
    Kraków

    Domyślnie

    Zniża SP-TBM z Kairu Socata TBM-930

  6. #66
    Moderator Photo Screener
    Awatar lucasmadi

    Dołączył
    Aug 2007
    Mieszka w
    EPKK

    Domyślnie

    EPKK 231030Z 06014KT 9999 OVC005 06/05 Q1018

    AY747 HEL-KRK DIV TO WAW E90
    LS949 MAN-KRK DIV TO OSR B733
    EZY6275 BRS-KRK DIV TO OSR A320
    Ostatnio edytowane przez lucasmadi ; Wczoraj o 12:21

  7. #67

    Dołączył
    Dec 2008
    Mieszka w
    górach

    Domyślnie

    Cytat Zamieszczone przez lucasmadi Zobacz posta
    EPKK 231030Z 06014KT 9999 OVC005 06/05 Q1018
    Easy z Bristolu po go-around dalej w holdingu (już 1,5h) i idzie na rekord:

    https://www.flightradar24.com/EZY28YP/cd35bc1

  8. #68

    Dołączył
    Mar 2017

    Domyślnie

    Dziwne, bo to wygląda tak jak by tylko EZY bał się lądować.
    Inni (np. NAX,RYR) za pierwszym razem siadają.

  9. #69

    Dołączył
    Jun 2013

    Domyślnie


    Polecamy

    Strach tu nie ma nic do rzeczy. Limity linii, pilotów, typu samolotu dot. maksymalnej składowej wiatru w ogon, pas mokry czy suchy, masa do lądowania...
    Ogólnie to nie takie proste. Wylądować to jedno, a zatrzymać się na pasie a nie w krzakach za nim to drugie.
    konrad777, lucasmadi and scomin like this.

Strona 4 z 4 PierwszyPierwszy ... 2 3 4

Uprawnienia umieszczania postów

  • Nie możesz zakładać nowych tematów
  • Nie możesz pisać wiadomości
  • Nie możesz dodawać załączników
  • Nie możesz edytować swoich postów
  •